Time;durP1;ratioP1;P1;durP2;ratioP2;P2;SDS_P1;SDS_P2;PMS_P1;PMS_P2;Temp;Humidity;BMP_temperature;BMP_pressure;BME280_temperature;BME280_humidity;BME280_pressure;Samples;Min_cycle;Max_cycle;Signal;HPM_P1;HPM_P2
2021/01/07 00:01:11;;;;;;;133.70;48.90;;;2.50;99.90;;;;;;6244859;28;20057;-75
2021/01/07 00:04:13;;;;;;;116.03;42.30;;;2.50;99.90;;;;;;6236883;28;20506;-75
2021/01/07 00:07:14;;;;;;;130.50;47.37;;;2.50;99.90;;;;;;6223503;28;20049;-76
2021/01/07 00:10:16;;;;;;;131.40;45.20;;;2.50;99.90;;;;;;6222378;28;20077;-76
2021/01/07 00:13:18;;;;;;;132.77;47.57;;;2.50;99.90;;;;;;6222331;28;20697;-76
2021/01/07 00:16:19;;;;;;;145.47;49.80;;;2.50;99.90;;;;;;6222946;28;20539;-76
2021/01/07 00:19:20;;;;;;;149.53;49.83;;;2.50;99.90;;;;;;6222771;28;20088;-76
2021/01/07 00:22:22;;;;;;;140.57;47.23;;;2.50;99.90;;;;;;6222804;28;20050;-76
2021/01/07 00:25:23;;;;;;;145.80;48.17;;;2.50;99.90;;;;;;6222665;28;20096;-76
2021/01/07 00:28:25;;;;;;;155.07;49.97;;;2.50;99.90;;;;;;6223195;28;20052;-76
2021/01/07 00:31:26;;;;;;;155.30;49.23;;;2.50;99.90;;;;;;6222337;28;20140;-76
2021/01/07 00:34:28;;;;;;;174.20;57.03;;;2.50;99.90;;;;;;6222534;28;20046;-75
2021/01/07 00:37:30;;;;;;;177.20;54.30;;;2.50;99.90;;;;;;6222449;28;20041;-76
2021/01/07 00:40:31;;;;;;;157.67;52.23;;;2.40;99.90;;;;;;6222520;28;20179;-75
2021/01/07 00:43:33;;;;;;;169.30;56.97;;;2.40;99.90;;;;;;6223135;28;20149;-76
2021/01/07 00:46:35;;;;;;;164.40;54.53;;;2.50;99.90;;;;;;6222434;28;20129;-76
2021/01/07 00:49:36;;;;;;;152.80;52.17;;;2.50;99.90;;;;;;6222629;28;20046;-76
2021/01/07 00:52:39;;;;;;;182.37;58.10;;;2.50;99.90;;;;;;6222037;28;20061;-76
2021/01/07 00:55:40;;;;;;;172.67;56.00;;;2.50;99.90;;;;;;6222135;28;20519;-76
2021/01/07 00:58:42;;;;;;;169.83;51.00;;;2.60;99.90;;;;;;6222781;28;20073;-76
2021/01/07 01:01:44;;;;;;;173.20;57.63;;;2.60;99.90;;;;;;6227515;28;20050;-76
2021/01/07 01:04:45;;;;;;;156.17;52.53;;;2.60;99.90;;;;;;6228464;28;20146;-77
2021/01/07 01:07:47;;;;;;;183.87;54.70;;;2.60;99.90;;;;;;6228145;28;20551;-77
2021/01/07 01:10:48;;;;;;;165.27;53.87;;;2.60;99.90;;;;;;6225586;28;20046;-77
2021/01/07 01:13:50;;;;;;;156.20;54.40;;;2.60;99.90;;;;;;6226723;28;20049;-77
2021/01/07 01:16:52;;;;;;;171.17;54.97;;;2.60;99.90;;;;;;6227117;28;20073;-77
2021/01/07 01:19:53;;;;;;;169.73;53.67;;;2.60;99.90;;;;;;6227694;28;20412;-77
2021/01/07 01:22:54;;;;;;;145.33;52.00;;;2.60;99.90;;;;;;6226884;28;20073;-77
2021/01/07 01:25:56;;;;;;;190.13;57.03;;;2.60;99.90;;;;;;6226644;28;20129;-77
2021/01/07 01:28:58;;;;;;;166.27;53.67;;;2.60;99.90;;;;;;6227525;28;20046;-77
2021/01/07 01:31:59;;;;;;;156.83;52.70;;;2.60;99.90;;;;;;6228519;28;20053;-77
2021/01/07 01:35:00;;;;;;;163.70;49.93;;;2.60;99.90;;;;;;6226450;28;20542;-77
2021/01/07 01:38:02;;;;;;;163.27;55.57;;;2.60;99.90;;;;;;6227219;28;20042;-77
2021/01/07 01:41:04;;;;;;;148.17;51.57;;;2.60;99.90;;;;;;6226320;28;20045;-76
2021/01/07 01:44:07;;;;;;;157.80;53.90;;;2.60;99.90;;;;;;6226282;28;20054;-76
2021/01/07 01:47:08;;;;;;;169.43;54.87;;;2.60;99.90;;;;;;6226413;28;20038;-77
2021/01/07 01:50:10;;;;;;;148.27;50.53;;;2.60;99.90;;;;;;6226211;28;20045;-76
2021/01/07 01:53:11;;;;;;;142.30;49.10;;;2.50;99.90;;;;;;6225927;28;20038;-77
2021/01/07 01:56:15;;;;;;;151.50;52.77;;;2.60;99.90;;;;;;6226565;28;20041;-76
2021/01/07 01:59:21;;;;;;;148.57;53.90;;;2.60;99.90;;;;;;6226041;28;20048;-76
2021/01/07 02:02:23;;;;;;;154.47;51.63;;;2.50;99.90;;;;;;6225803;28;20416;-77
2021/01/07 02:05:24;;;;;;;157.37;51.83;;;2.60;99.90;;;;;;6225705;28;20042;-76
2021/01/07 02:08:28;;;;;;;151.23;53.60;;;2.50;99.90;;;;;;6225952;28;20077;-78
2021/01/07 02:11:29;;;;;;;163.37;53.87;;;2.60;99.90;;;;;;6223946;28;20125;-77
2021/01/07 02:14:32;;;;;;;180.83;56.07;;;2.60;99.90;;;;;;6225827;28;20154;-77
2021/01/07 02:17:33;;;;;;;151.13;54.83;;;2.60;99.90;;;;;;6225627;28;20045;-77
2021/01/07 02:20:37;;;;;;;150.10;54.17;;;2.60;99.90;;;;;;6225717;28;20046;-76
2021/01/07 02:23:46;;;;;;;148.00;57.53;;;2.60;99.90;;;;;;6225487;28;20056;-77
2021/01/07 02:26:48;;;;;;;186.00;60.17;;;2.70;99.90;;;;;;6225206;28;20081;-77
2021/01/07 02:29:49;;;;;;;169.10;55.33;;;2.60;99.90;;;;;;6225271;28;20042;-77
2021/01/07 02:32:51;;;;;;;148.00;51.97;;;2.60;99.90;;;;;;6225561;28;20054;-77
2021/01/07 02:35:53;;;;;;;164.80;53.43;;;2.70;99.90;;;;;;6225363;28;20050;-77
2021/01/07 02:38:54;;;;;;;161.03;56.43;;;2.70;99.90;;;;;;6225291;28;20052;-77
2021/01/07 02:41:57;;;;;;;148.30;50.53;;;2.70;99.90;;;;;;6224726;28;20079;-76
2021/01/07 02:44:58;;;;;;;151.10;54.10;;;2.70;99.90;;;;;;6224770;28;20568;-76
2021/01/07 02:47:59;;;;;;;155.60;52.60;;;2.70;99.90;;;;;;6224856;28;20414;-77
2021/01/07 02:51:02;;;;;;;162.97;56.87;;;2.70;99.90;;;;;;6225126;28;20426;-77
2021/01/07 02:54:03;;;;;;;167.67;55.53;;;2.70;99.90;;;;;;6224066;28;20529;-77
2021/01/07 02:57:04;;;;;;;181.63;60.43;;;2.60;99.90;;;;;;6224597;28;20072;-77
2021/01/07 03:00:07;;;;;;;160.60;54.60;;;2.60;99.90;;;;;;6224487;28;20507;-76
2021/01/07 03:03:08;;;;;;;186.93;58.07;;;2.60;99.90;;;;;;6224119;28;20048;-76
2021/01/07 03:06:11;;;;;;;184.17;58.20;;;2.60;99.90;;;;;;6223678;28;20099;-76
2021/01/07 03:09:13;;;;;;;166.10;54.97;;;2.50;99.90;;;;;;6224444;28;20557;-77
2021/01/07 03:12:16;;;;;;;180.37;58.63;;;2.60;99.90;;;;;;6224220;28;20053;-77
2021/01/07 03:15:17;;;;;;;170.63;59.33;;;2.60;99.90;;;;;;6223438;28;20053;-77
2021/01/07 03:18:18;;;;;;;191.00;60.60;;;2.50;99.90;;;;;;6224238;28;20050;-76
2021/01/07 03:21:21;;;;;;;171.03;60.90;;;2.50;99.90;;;;;;6223861;28;20041;-77
2021/01/07 03:24:22;;;;;;;174.63;59.87;;;2.50;99.90;;;;;;6224472;28;20244;-77
2021/01/07 03:27:23;;;;;;;175.23;58.67;;;2.50;99.90;;;;;;6224392;28;20046;-77
2021/01/07 03:30:25;;;;;;;178.47;59.70;;;2.50;99.90;;;;;;6223601;28;20070;-77
2021/01/07 03:33:26;;;;;;;175.13;56.80;;;2.50;99.90;;;;;;6224151;28;20088;-76
2021/01/07 03:36:28;;;;;;;164.07;57.30;;;2.50;99.90;;;;;;6224256;28;20137;-76
2021/01/07 03:39:29;;;;;;;178.13;59.07;;;2.50;99.90;;;;;;6225570;28;20129;-76
2021/01/07 03:42:31;;;;;;;159.27;57.23;;;2.50;99.90;;;;;;6227358;28;20652;-77
2021/01/07 03:45:32;;;;;;;164.93;54.67;;;2.50;99.90;;;;;;6225875;28;20046;-76
2021/01/07 03:48:34;;;;;;;156.30;57.33;;;2.50;99.90;;;;;;6225610;28;20054;-75
2021/01/07 03:51:36;;;;;;;207.63;63.57;;;2.50;99.90;;;;;;6240046;28;20050;-75
2021/01/07 03:54:37;;;;;;;162.80;56.03;;;2.50;99.90;;;;;;6238037;28;20080;-75
2021/01/07 03:57:38;;;;;;;201.13;65.50;;;2.50;99.90;;;;;;6227381;28;20061;-76
2021/01/07 04:00:40;;;;;;;166.00;58.27;;;2.50;99.90;;;;;;6222882;28;20077;-76
2021/01/07 04:03:41;;;;;;;185.30;59.23;;;2.50;99.90;;;;;;6222947;28;20093;-76
2021/01/07 04:06:43;;;;;;;164.70;56.47;;;2.50;99.90;;;;;;6223094;28;20056;-76
2021/01/07 04:09:44;;;;;;;158.43;56.97;;;2.50;99.90;;;;;;6222483;28;20069;-77
2021/01/07 04:12:46;;;;;;;170.40;57.10;;;2.50;99.90;;;;;;6222517;28;20084;-77
2021/01/07 04:15:47;;;;;;;156.23;55.07;;;2.50;99.90;;;;;;6222668;28;20054;-77
2021/01/07 04:18:48;;;;;;;164.83;56.93;;;2.50;99.90;;;;;;6222466;28;20056;-76
2021/01/07 04:21:50;;;;;;;173.30;56.13;;;2.50;99.90;;;;;;6222475;28;20045;-76
2021/01/07 04:24:52;;;;;;;174.83;59.73;;;2.50;99.90;;;;;;6223397;28;20042;-76
2021/01/07 04:27:53;;;;;;;150.27;56.80;;;2.50;99.90;;;;;;6223063;28;20582;-76
2021/01/07 04:30:54;;;;;;;167.23;60.43;;;2.50;99.90;;;;;;6222336;28;20099;-76
2021/01/07 04:33:56;;;;;;;164.33;57.23;;;2.50;99.90;;;;;;6223213;28;20140;-76
2021/01/07 04:36:58;;;;;;;174.53;59.57;;;2.50;99.90;;;;;;6227526;28;20631;-76
2021/01/07 04:39:59;;;;;;;158.33;54.10;;;2.50;99.90;;;;;;6227741;28;20511;-76
2021/01/07 04:43:01;;;;;;;177.17;63.97;;;2.50;99.90;;;;;;6227793;28;20462;-76
2021/01/07 04:46:03;;;;;;;185.60;59.53;;;2.50;99.90;;;;;;6227151;28;20052;-77
2021/01/07 04:49:04;;;;;;;183.43;60.13;;;2.50;99.90;;;;;;6227261;28;20124;-77
2021/01/07 04:52:06;;;;;;;156.70;55.73;;;2.50;99.90;;;;;;6227681;28;20084;-76
2021/01/07 04:55:09;;;;;;;151.70;53.60;;;2.50;99.90;;;;;;6226899;28;20128;-77
2021/01/07 04:58:10;;;;;;;156.10;55.20;;;2.50;99.90;;;;;;6226710;28;20583;-76
2021/01/07 05:01:12;;;;;;;170.33;59.63;;;2.50;99.90;;;;;;6227593;28;20038;-76
2021/01/07 05:04:16;;;;;;;150.40;56.27;;;2.40;99.90;;;;;;6226864;28;20409;-76
2021/01/07 05:07:19;;;;;;;153.53;58.00;;;2.40;99.90;;;;;;6226721;28;20064;-76
2021/01/07 05:10:20;;;;;;;159.33;54.40;;;2.50;99.90;;;;;;6226340;28;20046;-77
2021/01/07 05:13:23;;;;;;;155.27;52.80;;;2.40;99.90;;;;;;6226359;28;20128;-77
2021/01/07 05:16:24;;;;;;;151.00;54.50;;;2.40;99.90;;;;;;6226986;28;20053;-76
2021/01/07 05:19:25;;;;;;;151.10;53.10;;;2.50;99.90;;;;;;6226932;28;20133;-76
2021/01/07 05:22:36;;;;;;;158.57;56.27;;;2.50;99.90;;;;;;6226433;28;20100;-77
2021/01/07 05:25:39;;;;;;;159.50;55.87;;;2.50;99.90;;;;;;6226280;28;20046;-76
2021/01/07 05:28:40;;;;;;;149.97;50.93;;;2.50;99.90;;;;;;6226114;28;20058;-75
2021/01/07 05:31:51;;;;;;;123.30;48.03;;;2.50;99.90;;;;;;6226763;28;20532;-76
2021/01/07 05:34:53;;;;;;;152.37;54.33;;;2.50;99.90;;;;;;6226809;28;20054;-76
2021/01/07 05:37:56;;;;;;;157.43;53.60;;;2.50;99.90;;;;;;6226279;28;20065;-76
2021/01/07 05:40:58;;;;;;;151.97;51.03;;;2.50;99.90;;;;;;6225982;28;20125;-76
2021/01/07 05:44:00;;;;;;;149.77;50.07;;;2.50;99.90;;;;;;6226564;28;20062;-75
2021/01/07 05:47:01;;;;;;;167.30;53.00;;;2.50;99.90;;;;;;6227109;28;20049;-76
2021/01/07 05:50:03;;;;;;;150.93;55.17;;;2.50;99.90;;;;;;6226462;28;20050;-75
2021/01/07 05:53:06;;;;;;;150.33;51.50;;;2.50;99.90;;;;;;6226959;28;20046;-75
2021/01/07 05:56:08;;;;;;;153.00;55.67;;;2.50;99.90;;;;;;6226756;28;20107;-75
2021/01/07 05:59:09;;;;;;;153.23;52.13;;;2.50;99.90;;;;;;6226297;28;20053;-76
2021/01/07 06:02:15;;;;;;;160.10;55.10;;;2.50;99.90;;;;;;6225646;28;20072;-76
2021/01/07 06:05:16;;;;;;;145.03;52.33;;;2.50;99.90;;;;;;6226068;28;20503;-75
2021/01/07 06:08:18;;;;;;;135.17;48.97;;;2.50;99.90;;;;;;6226656;28;20107;-75
2021/01/07 06:11:21;;;;;;;151.10;53.53;;;2.50;99.90;;;;;;6226702;28;20052;-74
2021/01/07 06:14:22;;;;;;;171.73;54.13;;;2.50;99.90;;;;;;6225385;28;20187;-76
2021/01/07 06:17:24;;;;;;;146.37;52.20;;;2.50;99.90;;;;;;6225581;28;20034;-76
2021/01/07 06:20:25;;;;;;;148.77;48.87;;;2.50;99.90;;;;;;6226162;28;20053;-76
2021/01/07 06:23:31;;;;;;;146.57;50.17;;;2.50;99.90;;;;;;6225278;28;20050;-76
2021/01/07 06:26:32;;;;;;;158.97;50.37;;;2.50;99.90;;;;;;6224747;28;20438;-76
2021/01/07 06:29:33;;;;;;;160.27;52.67;;;2.50;99.90;;;;;;6225458;28;20057;-75
2021/01/07 06:32:35;;;;;;;159.83;52.33;;;2.50;99.90;;;;;;6224655;28;20101;-76
2021/01/07 06:35:41;;;;;;;148.83;51.03;;;2.50;99.90;;;;;;6224770;28;20060;-76
2021/01/07 06:38:53;;;;;;;180.77;52.17;;;2.60;99.90;;;;;;6225059;28;20530;-77
2021/01/07 06:41:57;;;;;;;151.93;50.67;;;2.60;99.90;;;;;;6225782;28;20180;-77
2021/01/07 06:44:59;;;;;;;132.40;47.80;;;2.60;99.90;;;;;;6224976;28;20050;-77
2021/01/07 06:48:03;;;;;;;139.60;50.40;;;2.60;99.90;;;;;;6225881;28;20110;-77
2021/01/07 06:51:05;;;;;;;155.70;48.70;;;2.70;99.90;;;;;;6225439;28;20080;-76
2021/01/07 06:54:09;;;;;;;142.47;48.53;;;2.60;99.90;;;;;;6225366;28;20128;-77
2021/01/07 06:57:12;;;;;;;145.07;50.93;;;2.60;99.90;;;;;;6226273;28;20046;-76
2021/01/07 07:00:15;;;;;;;134.63;48.83;;;2.70;99.90;;;;;;6228839;28;20064;-77
2021/01/07 07:03:18;;;;;;;152.30;51.27;;;2.70;99.90;;;;;;6224119;28;20046;-76
2021/01/07 07:06:25;;;;;;;147.63;51.37;;;2.60;99.90;;;;;;6217758;28;20041;-76
2021/01/07 07:09:32;;;;;;;145.23;47.73;;;2.60;99.90;;;;;;6224479;28;20080;-76
2021/01/07 07:12:34;;;;;;;142.02;52.80;;;2.60;99.90;;;;;;6224259;28;20096;-76
2021/01/07 07:15:36;;;;;;;140.13;47.93;;;2.60;99.90;;;;;;6224036;28;20132;-75
2021/01/07 07:18:38;;;;;;;132.90;47.87;;;2.60;99.90;;;;;;6223881;28;20045;-75
2021/01/07 07:21:56;;;;;;;163.53;51.87;;;2.60;99.90;;;;;;6224417;28;20049;-76
2021/01/07 07:25:01;;;;;;;146.10;48.37;;;2.60;99.90;;;;;;6223963;28;20519;-75
2021/01/07 07:28:05;;;;;;;169.13;54.47;;;2.50;99.90;;;;;;6220387;28;20050;-77
2021/01/07 07:31:06;;;;;;;135.93;47.00;;;2.60;99.90;;;;;;6217199;28;20054;-76
2021/01/07 07:34:09;;;;;;;122.30;48.70;;;2.60;99.90;;;;;;6211973;28;20552;-76
2021/01/07 07:37:18;;;;;;;136.93;46.03;;;2.60;99.90;;;;;;6216817;28;20069;-75
2021/01/07 07:40:31;;;;;;;145.73;49.87;;;2.60;99.90;;;;;;6228772;28;20049;-76
2021/01/07 07:43:34;;;;;;;139.87;43.53;;;2.60;99.90;;;;;;6231173;28;20097;-74
2021/01/07 07:46:37;;;;;;;117.57;46.17;;;2.50;99.90;;;;;;6226162;28;20049;-76
2021/01/07 07:49:38;;;;;;;119.40;44.97;;;2.50;99.90;;;;;;6218039;28;20049;-76
2021/01/07 07:52:39;;;;;;;134.17;44.17;;;2.50;99.90;;;;;;6213104;28;20042;-76
2021/01/07 07:55:43;;;;;;;124.70;47.57;;;2.50;99.90;;;;;;6209846;28;20132;-76
2021/01/07 07:58:44;;;;;;;142.67;44.07;;;2.50;99.90;;;;;;6218979;28;20113;-75
2021/01/07 08:01:48;;;;;;;138.00;44.80;;;2.50;99.90;;;;;;6219118;28;20456;-76
2021/01/07 08:04:49;;;;;;;142.63;48.73;;;2.50;99.90;;;;;;6213832;28;20423;-76
2021/01/07 08:07:51;;;;;;;135.70;46.77;;;2.50;99.90;;;;;;6216458;28;20038;-76
2021/01/07 08:10:55;;;;;;;116.63;42.80;;;2.50;99.90;;;;;;6210754;28;20513;-76
2021/01/07 08:13:56;;;;;;;138.03;47.00;;;2.50;99.90;;;;;;6221438;28;20045;-75
2021/01/07 08:16:58;;;;;;;121.63;48.37;;;2.50;99.90;;;;;;6213477;28;20065;-76
2021/01/07 08:20:00;;;;;;;125.97;45.17;;;2.50;99.90;;;;;;6214499;28;20412;-76
2021/01/07 08:23:08;;;;;;;109.93;44.27;;;2.50;99.90;;;;;;6221830;28;20046;-78
2021/01/07 08:26:23;;;;;;;129.80;46.25;;;2.50;99.90;;;;;;6213920;28;20041;-76
2021/01/07 08:29:26;;;;;;;126.53;45.53;;;2.50;99.90;;;;;;6221731;28;20172;-76
2021/01/07 08:32:34;;;;;;;129.27;47.63;;;2.50;99.90;;;;;;6219354;28;20096;-76
2021/01/07 08:35:36;;;;;;;121.57;49.47;;;2.60;99.90;;;;;;6219171;28;20544;-75
2021/01/07 08:38:39;;;;;;;129.13;47.13;;;2.60;99.90;;;;;;6215451;28;20046;-75
2021/01/07 08:41:44;;;;;;;121.90;44.00;;;2.60;99.90;;;;;;6215447;28;20053;-76
2021/01/07 08:44:46;;;;;;;117.07;46.03;;;2.70;99.90;;;;;;6210469;28;20180;-76
2021/01/07 08:47:47;;;;;;;115.93;43.13;;;2.70;99.90;;;;;;6217693;28;20079;-76
2021/01/07 08:50:50;;;;;;;124.73;45.47;;;2.70;99.90;;;;;;6213780;28;20416;-76
2021/01/07 08:53:52;;;;;;;131.03;49.23;;;2.70;99.90;;;;;;6214343;28;20436;-76
2021/01/07 08:56:56;;;;;;;128.23;47.30;;;2.70;99.90;;;;;;6220475;28;20053;-76
2021/01/07 08:59:57;;;;;;;117.30;46.30;;;2.80;99.90;;;;;;6214519;28;20447;-76
2021/01/07 09:03:01;;;;;;;129.20;46.90;;;2.80;99.90;;;;;;6216795;28;20124;-75
2021/01/07 09:06:09;;;;;;;119.63;44.90;;;2.80;99.90;;;;;;6213258;28;20129;-75
2021/01/07 09:09:13;;;;;;;129.02;45.42;;;2.80;99.90;;;;;;6211635;28;20054;-74
2021/01/07 09:12:17;;;;;;;110.33;43.10;;;2.80;99.90;;;;;;6217049;28;20060;-75
2021/01/07 09:15:25;;;;;;;121.60;44.70;;;2.90;99.90;;;;;;6209149;28;20096;-75
2021/01/07 09:18:26;;;;;;;107.30;43.42;;;2.90;99.90;;;;;;6215439;28;20064;-76
2021/01/07 09:21:28;;;;;;;157.43;54.10;;;2.90;99.90;;;;;;6222406;28;20054;-76
2021/01/07 09:24:35;;;;;;;232.02;69.72;;;3.00;99.90;;;;;;6217751;28;20050;-75
2021/01/07 09:27:37;;;;;;;194.50;62.28;;;3.30;99.90;;;;;;6217521;28;20511;-76
2021/01/07 09:30:38;;;;;;;140.13;49.80;;;3.40;99.90;;;;;;6217314;28;20562;-75
2021/01/07 09:33:39;;;;;;;140.20;49.65;;;3.30;99.90;;;;;;6224439;28;20042;-75
2021/01/07 09:36:40;;;;;;;111.83;44.17;;;3.30;99.90;;;;;;6221573;28;20046;-77
2021/01/07 09:39:43;;;;;;;118.15;44.00;;;3.20;99.90;;;;;;6226093;28;20050;-76
2021/01/07 09:42:45;;;;;;;110.93;44.17;;;3.20;99.90;;;;;;6216806;28;20119;-76
2021/01/07 09:45:49;;;;;;;122.00;51.05;;;3.30;99.90;;;;;;6219176;28;20141;-76
2021/01/07 09:48:50;;;;;;;113.95;43.05;;;3.30;99.90;;;;;;6221698;28;20045;-76
2021/01/07 09:51:51;;;;;;;113.68;40.50;;;3.40;99.90;;;;;;6220310;28;20516;-76
2021/01/07 09:54:52;;;;;;;111.43;45.10;;;3.40;99.90;;;;;;6220355;28;20053;-75
2021/01/07 09:57:55;;;;;;;94.80;39.90;;;3.50;99.90;;;;;;6224237;28;20499;-76
2021/01/07 10:00:56;;;;;;;100.80;40.92;;;3.50;99.90;;;;;;6223209;28;20515;-76
2021/01/07 10:03:57;;;;;;;99.13;41.83;;;3.50;99.90;;;;;;6217770;28;20112;-76
2021/01/07 10:06:59;;;;;;;101.95;40.08;;;3.60;99.90;;;;;;6222024;28;20500;-76
2021/01/07 10:10:00;;;;;;;112.70;46.45;;;3.60;99.90;;;;;;6223969;28;20057;-76
2021/01/07 10:13:02;;;;;;;118.70;45.97;;;3.70;99.90;;;;;;6221395;28;20046;-76
2021/01/07 10:16:04;;;;;;;88.90;39.30;;;3.80;99.90;;;;;;6221100;28;20054;-77
2021/01/07 10:19:05;;;;;;;102.03;39.92;;;3.90;99.90;;;;;;6221771;28;20042;-77
2021/01/07 10:22:09;;;;;;;92.40;40.78;;;3.90;99.90;;;;;;6218550;28;20134;-75
2021/01/07 10:25:12;;;;;;;99.53;39.92;;;3.80;99.90;;;;;;6213030;28;20133;-75
2021/01/07 10:28:14;;;;;;;83.47;35.03;;;3.80;99.90;;;;;;6222576;28;20049;-76
2021/01/07 10:31:17;;;;;;;65.32;33.97;;;3.90;99.90;;;;;;6216049;28;20038;-76
2021/01/07 10:34:19;;;;;;;75.72;36.33;;;3.90;99.90;;;;;;6222474;28;20417;-76
2021/01/07 10:37:22;;;;;;;78.28;38.65;;;3.80;99.90;;;;;;6220841;28;20069;-76
2021/01/07 10:40:26;;;;;;;72.57;31.02;;;3.90;99.90;;;;;;6223823;28;20129;-77
2021/01/07 10:43:30;;;;;;;100.68;38.97;;;4.00;99.90;;;;;;6217499;28;20558;-75
2021/01/07 10:46:36;;;;;;;55.55;32.75;;;4.50;99.90;;;;;;6219877;28;20069;-75
2021/01/07 10:49:38;;;;;;;52.20;27.38;;;4.40;99.90;;;;;;6221988;28;20052;-76
2021/01/07 10:52:56;;;;;;;54.83;28.38;;;4.30;99.90;;;;;;6221546;28;20133;-75
2021/01/07 10:56:02;;;;;;;53.35;27.42;;;4.20;99.90;;;;;;6210082;28;20080;-75
2021/01/07 10:59:22;;;;;;;48.05;27.77;;;4.10;99.90;;;;;;6221459;28;20045;-76
2021/01/07 11:02:48;;;;;;;58.10;29.35;;;4.20;99.90;;;;;;6219956;28;20068;-75
2021/01/07 11:05:53;;;;;;;55.88;26.35;;;4.20;99.90;;;;;;6207688;28;20057;-76
2021/01/07 11:09:04;;;;;;;51.40;27.20;;;4.30;99.90;;;;;;6223064;28;20042;-76
2021/01/07 11:12:13;;;;;;;51.15;26.98;;;4.30;99.90;;;;;;6220226;28;20103;-76
2021/01/07 11:15:19;;;;;;;48.40;23.77;;;4.30;99.90;;;;;;6220666;28;20049;-75
2021/01/07 11:18:26;;;;;;;43.42;23.92;;;4.30;99.90;;;;;;6220441;28;20575;-75
2021/01/07 11:21:28;;;;;;;46.35;26.90;;;4.40;99.90;;;;;;6220859;28;20101;-75
2021/01/07 11:24:30;;;;;;;42.67;23.02;;;4.50;99.90;;;;;;6220320;28;20057;-75
2021/01/07 11:27:32;;;;;;;45.83;25.23;;;4.50;99.90;;;;;;6220066;28;20095;-75
2021/01/07 11:30:37;;;;;;;39.60;22.13;;;4.60;99.80;;;;;;6230042;28;20053;-76
2021/01/07 11:33:40;;;;;;;37.58;23.35;;;4.70;99.50;;;;;;6223177;28;20084;-76
2021/01/07 11:36:51;;;;;;;36.47;20.83;;;4.70;98.70;;;;;;6217896;28;20050;-75
2021/01/07 11:40:03;;;;;;;35.55;21.98;;;4.80;98.20;;;;;;6217628;28;20523;-75
2021/01/07 11:43:37;;;;;;;36.28;19.65;;;4.80;97.50;;;;;;6215688;28;20050;-76
2021/01/07 11:46:41;;;;;;;38.58;22.17;;;4.70;97.20;;;;;;6215096;28;20568;-76
2021/01/07 11:49:48;;;;;;;31.10;18.85;;;4.60;97.50;;;;;;6220473;28;20066;-75
2021/01/07 11:52:52;;;;;;;81.43;40.53;;;4.70;97.80;;;;;;6214206;28;20508;-77
2021/01/07 11:55:53;;;;;;;42.65;20.42;;;4.80;98.30;;;;;;6213934;28;20060;-76
2021/01/07 11:58:59;;;;;;;37.20;18.77;;;5.00;97.90;;;;;;6208861;28;20228;-75
2021/01/07 12:02:01;;;;;;;29.73;16.55;;;5.10;97.20;;;;;;6220892;28;20042;-75
2021/01/07 12:05:05;;;;;;;28.30;16.27;;;5.20;95.60;;;;;;6211812;28;20189;-75
2021/01/07 12:08:16;;;;;;;25.20;16.77;;;5.10;94.50;;;;;;6219622;28;20180;-75
2021/01/07 12:11:24;;;;;;;26.23;17.25;;;5.00;94.20;;;;;;6217558;28;20042;-75
2021/01/07 12:14:29;;;;;;;23.60;15.85;;;5.00;94.80;;;;;;6217454;28;20069;-77
2021/01/07 12:17:31;;;;;;;31.67;17.20;;;4.90;93.70;;;;;;6209459;28;20500;-75
2021/01/07 12:20:35;;;;;;;31.90;16.73;;;4.90;93.50;;;;;;6210719;28;20521;-74
2021/01/07 12:23:39;;;;;;;30.98;17.90;;;4.80;93.40;;;;;;6216026;28;20050;-76
2021/01/07 12:26:41;;;;;;;26.95;17.95;;;4.90;93.70;;;;;;6212863;28;20066;-74
2021/01/07 12:29:42;;;;;;;32.53;16.95;;;4.90;93.50;;;;;;6217501;28;20515;-75
2021/01/07 12:32:51;;;;;;;30.88;16.55;;;4.90;92.90;;;;;;6214939;28;20069;-75
2021/01/07 12:36:04;;;;;;;29.60;16.63;;;4.80;93.40;;;;;;6211816;28;20061;-77
2021/01/07 12:39:07;;;;;;;28.23;15.55;;;4.90;93.20;;;;;;6214075;28;20100;-75
2021/01/07 12:42:13;;;;;;;30.23;16.90;;;4.90;93.20;;;;;;6209420;28;20724;-75
2021/01/07 12:45:16;;;;;;;39.00;23.20;;;4.90;92.90;;;;;;6211670;28;20049;-75
2021/01/07 12:48:20;;;;;;;28.40;17.05;;;4.80;93.00;;;;;;6207350;28;20042;-75
2021/01/07 12:51:22;;;;;;;34.20;25.75;;;4.80;93.30;;;;;;6212363;28;20046;-75
2021/01/07 12:54:23;;;;;;;37.55;20.05;;;4.70;92.90;;;;;;6211579;28;20046;-75
2021/01/07 12:57:27;;;;;;;31.55;18.60;;;4.70;93.10;;;;;;6223068;28;20091;-75
2021/01/07 13:00:33;;;;;;;29.50;17.77;;;4.70;93.50;;;;;;6219128;28;20496;-75
2021/01/07 13:03:41;;;;;;;31.52;20.27;;;4.70;93.10;;;;;;6195514;28;575553;-74
2021/01/07 13:06:49;;;;;;;33.50;21.98;;;4.70;92.70;;;;;;6224924;22;20070;-76
2021/01/07 13:09:52;;;;;;;32.17;21.73;;;4.70;93.00;;;;;;6189780;28;20134;-78
2021/01/07 13:12:56;;;;;;;27.88;15.52;;;4.70;93.50;;;;;;6176927;28;20050;-77
2021/01/07 13:15:58;;;;;;;30.73;17.73;;;4.70;93.00;;;;;;6176435;28;20050;-76
2021/01/07 13:19:01;;;;;;;32.92;18.90;;;4.70;93.00;;;;;;6173822;28;20122;-75
2021/01/07 13:22:03;;;;;;;35.00;18.33;;;4.70;92.70;;;;;;6184451;28;20518;-77
2021/01/07 13:25:09;;;;;;;36.40;19.77;;;4.70;93.50;;;;;;6199014;28;20500;-76
2021/01/07 13:28:11;;;;;;;33.10;18.38;;;4.80;93.40;;;;;;6198431;28;20500;-76
2021/01/07 13:31:12;;;;;;;33.45;18.88;;;4.80;93.20;;;;;;6199420;28;20071;-78
2021/01/07 13:34:15;;;;;;;42.50;37.83;;;4.80;93.40;;;;;;6200000;28;20057;-76
2021/01/07 13:37:18;;;;;;;37.60;23.15;;;4.70;93.00;;;;;;6197894;28;20042;-76
2021/01/07 13:40:23;;;;;;;35.40;21.95;;;4.70;93.00;;;;;;6194396;28;20061;-76
2021/01/07 13:43:25;;;;;;;33.83;19.92;;;4.70;92.10;;;;;;6175343;28;20117;-77
2021/01/07 13:46:26;;;;;;;35.97;17.90;;;4.70;92.70;;;;;;6173080;28;20051;-77
2021/01/07 13:49:30;;;;;;;36.20;20.50;;;4.70;92.40;;;;;;6174204;28;20047;-76
2021/01/07 13:52:34;;;;;;;34.10;22.13;;;4.70;92.90;;;;;;6175582;28;20066;-76
2021/01/07 13:55:36;;;;;;;34.08;17.90;;;4.60;93.20;;;;;;6195858;28;20050;-76
2021/01/07 13:58:37;;;;;;;28.50;18.13;;;4.60;92.60;;;;;;6177730;28;20126;-76
2021/01/07 14:01:39;;;;;;;32.03;17.42;;;4.60;92.00;;;;;;6179639;28;20057;-76
2021/01/07 14:04:42;;;;;;;41.08;23.02;;;4.50;92.80;;;;;;6174241;28;20062;-76
2021/01/07 14:07:50;;;;;;;41.05;23.42;;;4.60;93.20;;;;;;6194995;28;20078;-76
2021/01/07 14:10:53;;;;;;;31.60;19.60;;;4.50;92.90;;;;;;6192457;28;20043;-76
2021/01/07 14:13:54;;;;;;;31.95;18.85;;;4.50;93.10;;;;;;6200432;28;20138;-76
2021/01/07 14:16:56;;;;;;;30.77;18.60;;;4.50;92.60;;;;;;6201945;28;20092;-77
2021/01/07 14:19:59;;;;;;;30.65;17.23;;;4.40;92.30;;;;;;6202444;28;20141;-78
2021/01/07 14:26:19;;;;;;;;;;;4.30;92.20;;;;;;6189763;28;20125;-77
2021/01/07 14:29:26;;;;;;;29.98;17.77;;;4.30;92.80;;;;;;6183000;28;20436;-77
2021/01/07 14:32:27;;;;;;;31.05;17.90;;;4.20;93.00;;;;;;6175288;28;20043;-76
2021/01/07 14:35:33;;;;;;;38.88;21.05;;;4.20;93.40;;;;;;6169866;28;20496;-77
2021/01/07 14:38:36;;;;;;;29.25;18.27;;;4.30;93.40;;;;;;6170376;28;20043;-78
2021/01/07 14:41:37;;;;;;;37.03;19.88;;;4.30;93.80;;;;;;6173418;28;20081;-78
2021/01/07 14:44:38;;;;;;;27.50;16.42;;;4.30;93.80;;;;;;6173342;28;20483;-76
2021/01/07 14:47:40;;;;;;;31.35;18.27;;;4.30;93.30;;;;;;6178059;28;20051;-76
2021/01/07 14:50:43;;;;;;;29.73;18.58;;;4.20;92.90;;;;;;6173508;28;20043;-76
2021/01/07 14:53:45;;;;;;;34.55;19.60;;;4.10;92.90;;;;;;6172085;28;20051;-77
2021/01/07 14:56:51;;;;;;;30.10;18.08;;;4.10;93.40;;;;;;6170036;28;20047;-78
2021/01/07 15:00:00;;;;;;;29.73;17.65;;;4.10;94.00;;;;;;6175405;28;20061;-77
2021/01/07 15:03:03;;;;;;;27.08;15.63;;;4.10;93.90;;;;;;6177886;28;20077;-78
2021/01/07 15:06:20;;;;;;;27.40;16.35;;;4.00;93.30;;;;;;6172688;28;20043;-79
2021/01/07 15:09:26;;;;;;;28.38;15.55;;;4.00;94.20;;;;;;6186368;28;20050;-78
2021/01/07 15:12:30;;;;;;;30.55;16.95;;;4.00;93.90;;;;;;6199199;28;20053;-76
2021/01/07 15:15:39;;;;;;;32.50;17.58;;;3.90;94.00;;;;;;6175646;28;20082;-77
2021/01/07 15:18:46;;;;;;;41.13;24.77;;;3.90;94.20;;;;;;6175041;28;20622;-77
2021/01/07 15:22:08;;;;;;;31.48;16.30;;;3.90;94.70;;;;;;6171325;28;20088;-77
2021/01/07 15:25:14;;;;;;;33.92;15.98;;;3.90;94.90;;;;;;6169887;28;20121;-77
2021/01/07 15:28:27;;;;;;;30.73;15.80;;;3.90;94.90;;;;;;6173716;28;20461;-78
2021/01/07 15:31:31;;;;;;;28.67;15.80;;;3.80;94.80;;;;;;6173418;28;20125;-77
2021/01/07 15:34:42;;;;;;;74.55;41.03;;;3.80;95.10;;;;;;6170169;28;20186;-77
2021/01/07 15:38:40;;;;;;;27.63;17.55;;;3.80;95.70;;;;;;6175363;28;20066;-78